Time;durP1;ratioP1;P1;durP2;ratioP2;P2;SDS_P1;SDS_P2;PMS_P1;PMS_P2;Temp;Humidity;BMP_temperature;BMP_pressure;BME280_temperature;BME280_humidity;BME280_pressure;Samples;Min_cycle;Max_cycle;Signal;HPM_P1;HPM_P2
2021/12/28 00:00:12;;;;;;;7.70;5.13;;;;;;;7.79;88.32;98505.69;5042876;28;20052;-88
2021/12/28 00:02:40;;;;;;;7.32;5.35;;;;;;;7.79;88.08;98497.75;5076265;28;20041;-87
2021/12/28 00:05:09;;;;;;;7.70;4.72;;;;;;;7.79;88.21;98505.69;5044970;28;20064;-88
2021/12/28 00:07:37;;;;;;;9.43;4.97;;;;;;;7.79;88.21;98505.69;5058349;28;20045;-88
2021/12/28 00:10:05;;;;;;;7.82;5.00;;;;;;;7.80;88.18;98506.50;5075523;28;20044;-88
2021/12/28 00:12:34;;;;;;;10.05;5.00;;;;;;;7.79;88.27;98503.03;5046292;28;20377;-88
2021/12/28 00:15:06;;;;;;;7.32;4.63;;;;;;;7.81;88.41;98510.81;5055829;28;20047;-88
2021/12/28 00:18:19;;;;;;;8.80;5.10;;;;;;;7.82;88.10;98504.56;5074995;28;20072;-88
2021/12/28 00:20:20;;;;;;;7.53;4.78;;;;;;;7.82;88.18;98505.38;4983846;28;20546;-88
2021/12/28 00:22:47;;;;;;;7.80;4.72;;;;;;;7.83;88.17;98500.91;5045096;28;20430;-87
2021/12/28 00:25:44;;;;;;;8.77;5.15;;;;;;;7.72;87.92;98501.16;5041333;28;20051;-88
2021/12/28 00:28:11;;;;;;;10.95;5.65;;;;;;;7.81;88.25;98495.81;5027121;28;20073;-88
2021/12/28 00:30:38;;;;;;;8.52;5.78;;;;;;;7.80;88.19;98491.47;5060852;28;20487;-86
2021/12/28 00:33:05;;;;;;;9.40;5.22;;;;;;;7.82;88.13;98486.06;5077340;28;20120;-88
2021/12/28 00:35:35;;;;;;;8.48;5.10;;;;;;;7.82;87.99;98486.06;5063259;28;20152;-88
2021/12/28 00:38:04;;;;;;;8.45;5.78;;;;;;;7.84;88.12;98484.09;5062454;28;20044;-88
2021/12/28 00:40:31;;;;;;;11.60;5.57;;;;;;;7.84;88.12;98481.47;5015489;28;20044;-87
2021/12/28 00:42:58;;;;;;;8.38;5.60;;;;;;;7.84;87.92;98462.97;5046909;28;20505;-88
2021/12/28 00:45:26;;;;;;;9.25;5.60;;;;;;;7.86;88.25;98468.06;5082525;28;20490;-87
2021/12/28 00:47:53;;;;;;;8.57;5.03;;;;;;;7.85;88.21;98459.31;5080071;28;20048;-88
2021/12/28 00:50:20;;;;;;;7.38;5.25;;;;;;;7.86;88.10;98465.44;5051358;28;20434;-87
2021/12/28 00:52:47;;;;;;;8.88;5.28;;;;;;;7.86;88.14;98458.34;5068576;28;20055;-87
2021/12/28 00:55:15;;;;;;;9.48;5.43;;;;;;;7.86;87.97;98452.22;5064385;28;20063;-88
2021/12/28 00:57:42;;;;;;;7.15;5.40;;;;;;;7.83;88.00;98451.53;5039497;28;20044;-88
2021/12/28 01:00:12;;;;;;;9.55;5.35;;;;;;;7.85;87.63;98451.38;5054099;28;20076;-88
2021/12/28 01:02:39;;;;;;;7.13;4.82;;;;;;;7.85;87.70;98447.94;5066401;28;20041;-88
2021/12/28 01:05:08;;;;;;;8.90;4.50;;;;;;;7.85;87.47;98456.69;5079464;28;20066;-88
2021/12/28 01:08:05;;;;;;;7.97;4.85;;;;;;;7.71;87.14;98446.63;5048612;28;20045;-88
2021/12/28 01:10:50;;;;;;;8.82;5.32;;;;;;;7.75;87.05;98448.00;5018298;28;20106;-88
2021/12/28 01:13:18;;;;;;;8.18;4.53;;;;;;;7.79;87.12;98452.00;4991803;28;20399;-88
2021/12/28 01:15:45;;;;;;;5.97;4.18;;;;;;;7.79;86.98;98449.38;5061322;28;20040;-86
2021/12/28 01:18:12;;;;;;;9.20;4.57;;;;;;;7.77;87.03;98438.94;5062020;28;20052;-88
2021/12/28 01:20:40;;;;;;;5.68;4.00;;;;;;;7.77;86.64;98435.47;5058742;28;20048;-87
2021/12/28 01:23:07;;;;;;;7.25;3.90;;;;;;;7.76;86.80;98437.28;5062430;28;20055;-88
2021/12/28 01:25:34;;;;;;;8.70;3.78;;;;;;;7.76;86.88;98437.28;5063888;28;20094;-88
2021/12/28 01:28:02;;;;;;;6.25;3.53;;;;;;;7.75;86.70;98435.63;5053020;28;20460;-88
2021/12/28 01:30:31;;;;;;;6.43;3.30;;;;;;;7.75;86.75;98438.25;5054699;28;20427;-88
2021/12/28 01:32:59;;;;;;;4.47;3.08;;;;;;;7.76;86.57;98444.38;5062307;28;20405;-88
2021/12/28 01:35:28;;;;;;;7.97;3.58;;;;;;;7.77;86.66;98440.75;5040988;28;20044;-88
2021/12/28 01:37:55;;;;;;;6.32;3.08;;;;;;;7.76;86.65;98437.28;5059961;28;20488;-87
2021/12/28 01:40:27;;;;;;;6.00;2.97;;;;;;;7.75;86.76;98429.50;5044891;28;20534;-88
2021/12/28 01:43:01;;;;;;;7.38;3.20;;;;;;;7.77;86.84;98422.25;5047201;28;20045;-88
2021/12/28 01:45:45;;;;;;;5.40;3.03;;;;;;;7.76;86.66;98417.94;5074814;28;20075;-88
2021/12/28 01:48:19;;;;;;;6.10;3.58;;;;;;;7.76;86.66;98417.94;5027404;28;20086;-88
2021/12/28 01:50:48;;;;;;;6.05;2.80;;;;;;;7.77;86.67;98415.16;5044971;28;20056;-88
2021/12/28 01:53:16;;;;;;;7.70;3.00;;;;;;;7.79;86.55;98407.09;5025673;28;20048;-88
2021/12/28 01:56:36;;;;;;;5.20;3.17;;;;;;;7.66;86.21;98409.28;5057797;28;20496;-88
2021/12/28 01:59:04;;;;;;;8.48;2.67;;;;;;;7.74;86.33;98399.63;5017399;28;20119;-88
2021/12/28 02:01:31;;;;;;;6.53;2.40;;;;;;;7.74;86.24;98393.50;5061286;28;20045;-86
2021/12/28 02:03:58;;;;;;;11.88;2.53;;;;;;;7.73;86.05;98387.38;5060751;28;20060;-88
2021/12/28 02:06:25;;;;;;;4.38;2.30;;;;;;;7.74;86.15;98382.94;5059393;28;20044;-88
2021/12/28 02:08:53;;;;;;;5.07;2.10;;;;;;;7.72;85.88;98380.44;5028439;28;20041;-88
2021/12/28 02:11:21;;;;;;;7.97;2.85;;;;;;;7.72;85.73;98379.63;5057449;28;20056;-87
2021/12/28 02:13:49;;;;;;;6.93;2.20;;;;;;;7.72;85.81;98377.78;5044846;28;20044;-85
2021/12/28 02:16:16;;;;;;;9.68;1.95;;;;;;;7.71;85.57;98370.88;5048893;28;21072;-88
2021/12/28 02:18:43;;;;;;;7.55;2.38;;;;;;;7.70;85.51;98365.72;5062701;28;20067;-88
2021/12/28 02:21:09;;;;;;;3.45;2.20;;;;;;;7.69;85.42;98358.78;5077652;28;20496;-88
2021/12/28 02:23:37;;;;;;;7.35;2.00;;;;;;;7.67;85.46;98351.00;5045251;28;20040;-87
2021/12/28 02:26:04;;;;;;;8.70;2.10;;;;;;;7.66;85.26;98362.56;5041416;28;20101;-88
2021/12/28 02:28:31;;;;;;;7.35;3.30;;;;;;;7.66;85.29;98356.44;5056410;28;20096;-86
2021/12/28 02:34:45;;;;;;;9.63;3.35;;;;;;;7.61;85.33;98357.75;5038250;28;20053;-88
2021/12/28 02:37:13;;;;;;;6.00;2.20;;;;;;;7.61;85.39;98352.44;5047956;28;20172;-88
2021/12/28 02:39:40;;;;;;;6.55;2.40;;;;;;;7.63;85.37;98338.25;5076903;28;20463;-87
2021/12/28 02:42:07;;;;;;;9.50;2.75;;;;;;;7.64;85.39;98339.94;5056289;28;20507;-88
2021/12/28 02:44:33;;;;;;;11.48;2.55;;;;;;;7.62;85.03;98329.50;5010161;28;20499;-88
2021/12/28 02:47:00;;;;;;;12.23;2.50;;;;;;;7.60;84.78;98336.75;5060153;28;20434;-88
2021/12/28 02:49:27;;;;;;;4.20;2.30;;;;;;;7.60;84.71;98336.75;5061769;28;20048;-88
2021/12/28 02:51:54;;;;;;;9.20;2.38;;;;;;;7.58;84.71;98334.28;5059437;28;20047;-88
2021/12/28 02:54:20;;;;;;;7.93;2.67;;;;;;;7.57;84.68;98322.03;5060653;28;20085;-88
2021/12/28 02:56:47;;;;;;;4.65;1.95;;;;;;;7.56;84.30;98333.59;5046858;28;20052;-88
2021/12/28 02:59:14;;;;;;;5.70;2.00;;;;;;;7.55;84.44;98326.63;5046908;28;20056;-88
2021/12/28 03:01:41;;;;;;;8.73;2.50;;;;;;;7.55;84.24;98317.88;5046530;28;20353;-88
2021/12/28 03:04:08;;;;;;;13.98;2.35;;;;;;;7.53;84.28;98312.78;5028731;28;20942;-88
2021/12/28 03:06:35;;;;;;;7.18;2.15;;;;;;;7.53;84.26;98323.34;5045941;28;20411;-88
2021/12/28 03:09:05;;;;;;;7.22;1.58;;;;;;;7.52;83.99;98321.66;5039646;28;20048;-88
2021/12/28 03:11:32;;;;;;;7.65;2.38;;;;;;;7.53;84.33;98325.13;5062727;28;20042;-89
2021/12/28 03:14:01;;;;;;;4.20;1.63;;;;;;;7.52;84.07;98326.13;5058956;28;20045;-88
2021/12/28 03:16:31;;;;;;;15.75;2.47;;;;;;;7.50;83.85;98323.63;5059071;28;20045;-88
2021/12/28 03:18:57;;;;;;;8.77;2.40;;;;;;;7.50;83.72;98320.97;5043233;28;20123;-88
2021/12/28 03:21:24;;;;;;;7.38;2.22;;;;;;;7.50;83.91;98325.44;5059671;28;20052;-86
2021/12/28 03:23:54;;;;;;;5.25;1.50;;;;;;;7.50;83.72;98320.16;5046482;28;20115;-88
2021/12/28 03:26:25;;;;;;;8.50;2.00;;;;;;;7.48;83.44;98316.84;5078110;28;20044;-88
2021/12/28 03:28:52;;;;;;;7.70;1.60;;;;;;;7.49;83.80;98306.13;5061732;28;20436;-88
2021/12/28 03:31:20;;;;;;;7.47;1.80;;;;;;;7.50;83.94;98299.03;5043733;28;20043;-88
2021/12/28 03:33:49;;;;;;;7.10;2.75;;;;;;;7.49;83.78;98292.94;5058695;28;20090;-88
2021/12/28 03:36:17;;;;;;;6.05;1.80;;;;;;;7.50;84.00;98297.22;5077232;28;20060;-87
2021/12/28 03:38:44;;;;;;;11.02;2.25;;;;;;;7.50;83.86;98294.56;5057127;28;20045;-88
2021/12/28 03:41:12;;;;;;;6.82;2.42;;;;;;;7.51;83.95;98287.50;5072829;28;20052;-88
2021/12/28 03:43:42;;;;;;;6.05;2.10;;;;;;;7.50;83.86;98283.19;5061265;28;20044;-88
2021/12/28 03:46:09;;;;;;;10.88;1.98;;;;;;;7.49;83.93;98287.66;5074084;28;20625;-87
2021/12/28 03:48:38;;;;;;;11.18;1.90;;;;;;;7.48;83.80;98274.56;5057816;28;20060;-87
2021/12/28 03:51:06;;;;;;;11.25;2.00;;;;;;;7.48;83.99;98277.22;5061160;28;20037;-88
2021/12/28 03:53:33;;;;;;;11.00;2.20;;;;;;;7.47;83.70;98273.75;5077726;28;20459;-87
2021/12/28 03:56:00;;;;;;;14.02;2.78;;;;;;;7.47;83.60;98263.19;5029388;28;20043;-88
2021/12/28 03:58:27;;;;;;;7.95;2.08;;;;;;;7.47;83.96;98263.19;5055387;28;20052;-88
2021/12/28 04:00:56;;;;;;;12.95;2.58;;;;;;;7.47;84.09;98249.16;5061327;28;20064;-88
2021/12/28 04:03:23;;;;;;;9.85;2.10;;;;;;;7.47;83.93;98246.53;5070482;28;20439;-88
2021/12/28 04:05:51;;;;;;;8.75;1.77;;;;;;;7.46;83.93;98253.63;5024003;28;20044;-85
2021/12/28 04:08:21;;;;;;;11.40;1.52;;;;;;;7.46;83.94;98237.78;5059035;28;20044;-87
2021/12/28 04:10:53;;;;;;;8.13;2.05;;;;;;;7.47;84.01;98244.72;5027935;28;20534;-87
2021/12/28 04:13:22;;;;;;;9.40;1.73;;;;;;;7.47;84.03;98251.81;5059669;28;20052;-87
2021/12/28 04:15:48;;;;;;;4.32;1.65;;;;;;;7.46;84.10;98232.50;5061712;28;20048;-88
2021/12/28 04:18:17;;;;;;;6.22;1.70;;;;;;;7.48;83.93;98242.88;5046628;28;20488;-88
2021/12/28 04:20:44;;;;;;;7.93;1.67;;;;;;;7.48;84.14;98240.25;5066591;28;20048;-87
2021/12/28 04:23:11;;;;;;;7.55;1.98;;;;;;;7.48;84.06;98237.59;5062443;28;20454;-85
2021/12/28 04:25:38;;;;;;;8.63;2.05;;;;;;;7.48;84.15;98230.53;5057434;28;20056;-88
2021/12/28 04:28:05;;;;;;;5.03;1.73;;;;;;;7.48;84.05;98235.81;5072888;28;20036;-88
2021/12/28 04:30:31;;;;;;;11.70;2.55;;;;;;;7.48;84.49;98230.53;5072566;28;20091;-88
2021/12/28 04:33:23;;;;;;;8.57;1.90;;;;;;;7.37;84.12;98239.50;5039511;28;20048;-88
2021/12/28 04:35:50;;;;;;;15.40;1.90;;;;;;;7.48;84.36;98233.19;5073132;28;20047;-88
2021/12/28 04:38:17;;;;;;;5.78;1.70;;;;;;;7.50;84.42;98241.75;5070563;28;20047;-87
2021/12/28 04:40:44;;;;;;;12.93;2.67;;;;;;;7.51;84.49;98239.97;5059877;28;20045;-87
2021/12/28 04:43:12;;;;;;;15.52;2.03;;;;;;;7.51;84.41;98239.97;5055539;28;20048;-88
2021/12/28 04:45:39;;;;;;;10.82;1.75;;;;;;;7.52;84.47;98238.97;5031551;28;20448;-88
2021/12/28 04:48:06;;;;;;;10.77;2.55;;;;;;;7.52;84.54;98237.16;5058426;28;20406;-87
2021/12/28 04:50:37;;;;;;;8.77;2.22;;;;;;;7.53;84.43;98240.59;5057854;28;20056;-88
2021/12/28 04:53:11;;;;;;;8.77;1.88;;;;;;;7.50;84.37;98233.81;5024320;28;20492;-89
2021/12/28 04:55:38;;;;;;;;;;;;;;;7.32;84.99;98231.22;5039297;28;20051;-88
2021/12/28 04:58:05;;;;;;;8.30;1.42;;;;;;;7.50;84.76;98240.94;5041725;28;19920;-87
2021/12/28 05:00:34;;;;;;;9.30;1.90;;;;;;;7.52;84.79;98233.69;5058779;28;20032;-88
2021/12/28 05:03:56;;;;;;;8.88;1.42;;;;;;;7.42;84.64;98223.22;5072099;28;20361;-88
2021/12/28 05:06:23;;;;;;;9.45;1.75;;;;;;;7.51;84.83;98219.66;4979862;28;20038;-88
2021/12/28 05:08:50;;;;;;;8.98;1.40;;;;;;;7.53;84.88;98212.41;5078122;28;20094;-87
2021/12/28 05:11:43;;;;;;;6.63;1.50;;;;;;;7.43;84.68;98214.31;5059473;28;20192;-88
2021/12/28 05:14:10;;;;;;;12.85;2.08;;;;;;;7.53;84.76;98203.63;5042184;28;20496;-87
2021/12/28 05:16:37;;;;;;;11.32;1.67;;;;;;;7.54;84.89;98203.50;5073761;28;20135;-87
2021/12/28 05:19:05;;;;;;;8.02;2.17;;;;;;;7.55;85.06;98204.31;5043532;28;20131;-87
2021/12/28 05:21:33;;;;;;;8.25;1.90;;;;;;;7.57;84.96;98204.97;5059499;28;20083;-87
2021/12/28 05:24:00;;;;;;;9.57;2.33;;;;;;;7.58;84.96;98202.19;5051861;28;20052;-87
2021/12/28 05:26:27;;;;;;;7.35;1.98;;;;;;;7.58;84.92;98202.19;5047041;28;20040;-87
2021/12/28 05:28:54;;;;;;;13.98;2.45;;;;;;;7.57;84.89;98195.25;5059839;28;20119;-87
2021/12/28 05:31:21;;;;;;;9.30;2.05;;;;;;;7.58;84.67;98201.34;5043548;28;20454;-87
2021/12/28 05:33:48;;;;;;;9.10;2.13;;;;;;;7.58;84.86;98204.84;5029946;28;20048;-87
2021/12/28 05:36:15;;;;;;;4.32;1.33;;;;;;;7.59;85.04;98197.75;5046159;28;20048;-88
2021/12/28 05:39:07;;;;;;;5.78;1.98;;;;;;;7.47;84.80;98194.53;5078142;28;20058;-86
2021/12/28 05:41:34;;;;;;;8.43;2.15;;;;;;;7.58;84.85;98204.84;5051835;28;20067;-88
2021/12/28 05:44:00;;;;;;;8.43;2.33;;;;;;;7.58;84.85;98202.19;5047542;28;20041;-87
2021/12/28 05:46:27;;;;;;;13.15;2.85;;;;;;;7.59;84.97;98195.09;5059825;28;20123;-87
2021/12/28 05:48:54;;;;;;;11.10;3.38;;;;;;;7.60;85.04;98208.13;5048348;28;20344;-87
2021/12/28 05:51:21;;;;;;;11.95;2.53;;;;;;;7.60;85.19;98200.22;5061851;28;20051;-88
2021/12/28 05:53:51;;;;;;;16.63;6.25;;;;;;;7.58;84.92;98196.91;5031315;28;20058;-87
2021/12/28 05:56:18;;;;;;;20.83;7.20;;;;;;;7.60;85.31;98194.91;5075940;28;20040;-87
2021/12/28 05:58:45;;;;;;;10.52;4.22;;;;;;;7.61;85.08;98188.69;5078458;28;20461;-88
2021/12/28 06:01:11;;;;;;;11.32;3.20;;;;;;;7.62;85.20;98186.84;5074906;28;20047;-88
2021/12/28 06:03:38;;;;;;;14.95;3.50;;;;;;;7.62;85.13;98186.84;5045902;28;20048;-88
2021/12/28 06:06:05;;;;;;;10.27;2.45;;;;;;;7.63;85.37;98185.03;5047158;28;20630;-85
2021/12/28 06:08:32;;;;;;;9.23;2.72;;;;;;;7.63;85.19;98187.69;5069138;28;20068;-87
2021/12/28 06:11:00;;;;;;;9.52;2.00;;;;;;;7.63;85.35;98192.97;5065794;28;20055;-88
2021/12/28 06:13:26;;;;;;;9.80;2.42;;;;;;;7.63;85.21;98191.13;5085599;28;20039;-87
2021/12/28 06:15:53;;;;;;;6.07;2.22;;;;;;;7.64;85.33;98187.53;5048967;28;20065;-87
2021/12/28 06:18:25;;;;;;;9.90;2.30;;;;;;;7.61;85.24;98190.50;5034050;28;20040;-87
2021/12/28 06:20:51;;;;;;;8.20;2.25;;;;;;;7.64;85.17;98190.19;5064227;28;20041;-87
2021/12/28 06:23:18;;;;;;;10.40;2.28;;;;;;;7.64;85.38;98186.72;5065613;28;20484;-87
2021/12/28 06:25:45;;;;;;;12.15;2.20;;;;;;;7.66;85.20;98190.00;5076595;28;20047;-87
2021/12/28 06:28:11;;;;;;;12.50;2.75;;;;;;;7.65;85.53;98191.00;5077194;28;20045;-88
2021/12/28 06:30:38;;;;;;;9.98;2.30;;;;;;;7.65;85.51;98191.00;5081973;28;20060;-87
2021/12/28 06:33:05;;;;;;;10.40;2.35;;;;;;;7.64;85.59;98181.44;5049115;28;20059;-87
2021/12/28 06:35:32;;;;;;;8.13;2.60;;;;;;;7.65;85.54;98169.84;5056477;28;20047;-87
2021/12/28 06:42:39;;;;;;;11.00;2.15;;;;;;;7.59;85.59;98168.69;5051174;28;20030;-90
2021/12/28 06:45:06;;;;;;;6.90;2.60;;;;;;;7.59;85.75;98169.50;5051429;28;20044;-90
2021/12/28 06:47:34;;;;;;;6.60;2.20;;;;;;;7.60;85.75;98171.16;5076724;28;20056;-88
2021/12/28 06:50:01;;;;;;;13.55;2.63;;;;;;;7.62;85.71;98165.72;5046588;28;20114;-90
2021/12/28 06:52:27;;;;;;;8.77;2.30;;;;;;;7.59;85.89;98158.94;5061404;28;20450;-91
2021/12/28 06:54:54;;;;;;;11.13;2.53;;;;;;;7.61;85.76;98159.63;5071717;28;20045;-89
2021/12/28 06:57:22;;;;;;;8.60;2.55;;;;;;;7.63;85.84;98161.25;5058659;28;20041;-90
2021/12/28 06:59:48;;;;;;;13.23;2.63;;;;;;;7.64;85.76;98158.47;5046157;28;20044;-90
2021/12/28 07:02:17;;;;;;;8.20;3.17;;;;;;;7.64;85.73;98147.09;5052686;28;20045;-89
2021/12/28 07:04:44;;;;;;;11.50;2.83;;;;;;;7.64;85.79;98150.53;5061397;28;20046;-90
2021/12/28 07:07:14;;;;;;;13.68;4.15;;;;;;;7.65;85.58;98154.84;5048314;28;20074;-90
2021/12/28 07:09:41;;;;;;;12.73;4.63;;;;;;;7.64;85.89;98147.09;5044731;28;20051;-90
2021/12/28 07:12:09;;;;;;;10.30;4.28;;;;;;;7.65;85.59;98146.09;5060902;28;20176;-89
2021/12/28 07:14:36;;;;;;;16.67;7.25;;;;;;;7.64;85.62;98133.88;5078505;28;20037;-86
2021/12/28 07:17:03;;;;;;;18.70;8.40;;;;;;;7.63;85.69;98126.91;5064279;28;20041;-90
2021/12/28 07:19:30;;;;;;;17.50;7.22;;;;;;;7.64;85.57;98129.41;5074319;28;20055;-89
2021/12/28 07:21:57;;;;;;;16.60;6.20;;;;;;;7.66;85.83;98127.44;5058263;28;20045;-90
2021/12/28 07:24:24;;;;;;;17.45;5.03;;;;;;;7.65;85.94;98103.81;5064179;28;20044;-90
2021/12/28 07:26:52;;;;;;;12.52;4.18;;;;;;;7.66;85.63;98124.81;5044306;28;20052;-89
2021/12/28 07:33:32;;;;;;;14.70;4.57;;;;;;;7.50;85.99;98111.50;5025533;28;20047;-89
2021/12/28 07:36:52;;;;;;;11.15;4.60;;;;;;;7.49;86.18;98112.50;5017236;28;20059;-90
2021/12/28 07:39:19;;;;;;;16.17;5.55;;;;;;;7.56;86.30;98108.25;5017008;28;20040;-90
2021/12/28 07:41:46;;;;;;;13.75;5.75;;;;;;;7.57;86.18;98112.53;5041251;28;20411;-89
2021/12/28 07:44:15;;;;;;;12.82;6.18;;;;;;;7.57;86.13;98107.25;5058714;28;20055;-88
2021/12/28 07:46:42;;;;;;;10.43;5.13;;;;;;;7.59;86.10;98113.22;5060399;28;20048;-89
2021/12/28 07:49:08;;;;;;;16.20;6.35;;;;;;;7.60;86.14;98112.22;5060045;28;20040;-89
2021/12/28 07:51:35;;;;;;;12.10;4.95;;;;;;;7.60;86.30;98107.75;5075882;28;20122;-93
2021/12/28 07:54:07;;;;;;;11.25;5.25;;;;;;;7.60;86.29;98109.56;5019459;28;20048;-90
2021/12/28 07:56:34;;;;;;;13.05;5.68;;;;;;;7.61;86.52;98111.25;5048596;28;20453;-90
2021/12/28 07:59:02;;;;;;;10.90;6.10;;;;;;;7.62;86.43;98110.25;5043567;28;20127;-90
2021/12/28 08:01:31;;;;;;;17.95;6.95;;;;;;;7.62;86.37;98104.97;5053729;28;20054;-94
2021/12/28 08:03:58;;;;;;;14.00;6.15;;;;;;;7.64;86.56;98110.91;5061426;28;20487;-92
2021/12/28 08:06:25;;;;;;;13.32;6.57;;;;;;;7.63;86.66;98117.16;5053011;28;20056;-87
2021/12/28 08:08:57;;;;;;;19.58;7.15;;;;;;;7.61;86.47;98127.91;5065885;28;20051;-94
2021/12/28 08:11:24;;;;;;;11.40;6.65;;;;;;;7.64;86.86;98123.31;5050814;28;20055;-94
2021/12/28 08:13:51;;;;;;;16.08;6.80;;;;;;;7.65;86.77;98122.31;5066568;28;20036;-94
2021/12/28 08:16:18;;;;;;;12.73;5.55;;;;;;;7.65;86.86;98120.50;5039349;28;20047;-92
2021/12/28 08:18:45;;;;;;;14.32;4.78;;;;;;;7.66;86.94;98119.53;5080211;28;20048;-91
2021/12/28 08:25:56;;;;;;;15.23;5.10;;;;;;;7.64;86.71;98121.50;5044013;28;20033;-92
2021/12/28 08:28:23;;;;;;;9.88;4.45;;;;;;;7.66;86.86;98116.88;5054024;28;20044;-93
2021/12/28 08:30:50;;;;;;;16.20;5.32;;;;;;;7.69;87.05;98116.56;5045844;28;20044;-93
2021/12/28 08:33:16;;;;;;;13.32;7.38;;;;;;;7.70;87.07;98110.28;5054404;28;20044;-93
2021/12/28 08:35:43;;;;;;;9.60;5.80;;;;;;;7.73;87.03;98115.22;5049856;28;20075;-93
2021/12/28 08:42:43;;;;;;;14.55;5.55;;;;;;;7.69;87.13;98106.00;5039086;28;20927;-93
2021/12/28 08:45:10;;;;;;;7.45;4.50;;;;;;;7.71;87.11;98103.16;5081633;28;20052;-95
2021/12/28 08:52:27;;;;;;;14.88;3.97;;;;;;;7.66;87.20;98106.31;5070394;28;20039;-94
2021/12/28 08:54:54;;;;;;;11.05;3.92;;;;;;;7.70;87.35;98114.72;5038973;28;20044;-94
2021/12/28 08:57:21;;;;;;;10.77;3.92;;;;;;;7.69;87.48;98106.00;5034862;28;20117;-94
2021/12/28 08:59:47;;;;;;;8.73;3.35;;;;;;;7.72;87.60;98110.13;5018874;28;20067;-95
2021/12/28 09:02:14;;;;;;;6.57;3.40;;;;;;;7.72;87.43;98110.94;5040641;28;20075;-94
2021/12/28 09:04:43;;;;;;;5.70;2.70;;;;;;;7.79;88.13;98119.06;5022235;28;20572;-88
2021/12/28 09:07:10;;;;;;;9.27;3.60;;;;;;;7.82;87.77;98113.47;5068602;28;20051;-89
2021/12/28 09:09:37;;;;;;;4.60;2.45;;;;;;;7.82;87.57;98109.00;5064118;28;20048;-86
2021/12/28 09:16:37;;;;;;;8.65;3.55;;;;;;;7.74;87.64;98113.44;5055225;28;20103;-94
2021/12/28 09:19:04;;;;;;;8.10;4.20;;;;;;;7.76;87.41;98119.38;5054782;28;20064;-93
2021/12/28 09:21:31;;;;;;;10.32;3.80;;;;;;;7.78;87.73;98122.69;5026474;28;20044;-93
2021/12/28 09:23:57;;;;;;;8.77;3.90;;;;;;;7.78;87.70;98117.41;5034639;28;20103;-94
2021/12/28 09:31:16;;;;;;;9.50;4.60;;;;;;;7.73;87.84;98124.97;5030094;28;20117;-93
2021/12/28 09:33:43;;;;;;;9.43;4.35;;;;;;;7.75;87.85;98131.75;5078959;28;20456;-93
2021/12/28 09:36:14;;;;;;;7.38;3.90;;;;;;;7.75;88.12;98139.69;5033761;28;20481;-93
2021/12/28 09:38:43;;;;;;;5.43;2.97;;;;;;;7.76;88.07;98136.06;5047231;28;20446;-92
2021/12/28 09:41:11;;;;;;;8.65;3.15;;;;;;;7.78;88.05;98136.72;5062050;28;20049;-92
2021/12/28 09:52:56;;;;;;;10.20;4.68;;;;;;;7.74;88.32;98143.31;5060868;28;20033;-91
2021/12/28 09:55:28;;;;;;;7.75;4.00;;;;;;;7.78;88.63;98146.47;5074560;28;20052;-94
2021/12/28 09:57:58;;;;;;;7.20;4.25;;;;;;;7.80;88.49;98145.31;5038001;28;20050;-94
2021/12/28 10:05:12;;;;;;;8.68;4.68;;;;;;;7.78;88.77;98139.34;5051395;28;20035;-92
2021/12/28 10:08:06;;;;;;;7.78;4.18;;;;;;;7.71;88.99;98140.16;5072672;28;20055;-94
2021/12/28 10:11:23;;;;;;;6.47;3.95;;;;;;;7.73;88.69;98144.28;5048807;28;20044;-94
2021/12/28 10:13:49;;;;;;;9.10;4.38;;;;;;;7.84;88.75;98137.91;5018557;28;20394;-90
2021/12/28 10:16:16;;;;;;;6.28;4.28;;;;;;;7.86;88.84;98143.88;5064925;28;20044;-89
2021/12/28 10:18:43;;;;;;;6.18;4.40;;;;;;;7.88;88.83;98143.69;5049512;28;20429;-88
2021/12/28 10:21:09;;;;;;;8.68;3.70;;;;;;;7.88;89.20;98136.59;5062142;28;20053;-90
2021/12/28 10:23:36;;;;;;;6.10;3.28;;;;;;;7.92;89.24;98132.66;5080350;28;20045;-93
2021/12/28 10:30:56;;;;;;;5.60;3.25;;;;;;;7.89;89.38;98140.91;5063170;28;20032;-92
2021/12/28 10:37:24;;;;;;;7.60;3.28;;;;;;;7.88;89.41;98139.22;4983219;28;20126;-92
2021/12/28 10:44:15;;;;;;;6.75;4.00;;;;;;;7.99;89.77;98130.19;5050565;28;20044;-91
2021/12/28 10:51:31;;;;;;;3.25;2.20;;;;;;;8.01;89.95;98139.63;5053110;28;20039;-90
2021/12/28 10:56:31;;;;;;;4.15;2.13;;;;;;;8.09;90.19;98135.31;5079209;28;20418;-89
2021/12/28 10:58:58;;;;;;;3.40;1.88;;;;;;;8.12;90.34;98130.56;5061060;28;20079;-89
2021/12/28 11:01:27;;;;;;;3.17;2.10;;;;;;;8.18;90.38;98137.00;5046416;28;20044;-89
2021/12/28 11:04:00;;;;;;;2.60;2.03;;;;;;;8.15;90.71;98139.97;5047866;28;20040;-89
2021/12/28 11:06:33;;;;;;;3.50;2.70;;;;;;;8.18;90.41;98139.66;5062651;28;20484;-89
2021/12/28 11:09:10;;;;;;;4.82;2.45;;;;;;;8.20;90.30;98143.78;5061544;28;20037;-90
2021/12/28 11:11:39;;;;;;;4.57;2.33;;;;;;;8.21;90.54;98126.09;5047898;28;20064;-93
2021/12/28 11:14:10;;;;;;;3.22;2.10;;;;;;;8.25;90.58;98125.63;5052544;28;20781;-91
2021/12/28 11:16:38;;;;;;;4.53;2.40;;;;;;;8.26;90.51;98129.09;5024996;28;20369;-93
2021/12/28 11:19:08;;;;;;;3.95;2.08;;;;;;;8.28;90.57;98119.19;5045858;28;20040;-93
2021/12/28 11:21:37;;;;;;;2.97;2.17;;;;;;;8.32;90.97;98122.31;5041930;28;20041;-89
2021/12/28 11:24:09;;;;;;;3.70;1.95;;;;;;;8.33;90.78;98126.63;5057377;28;20040;-92
2021/12/28 11:26:42;;;;;;;3.38;2.13;;;;;;;8.29;90.63;98112.06;5054397;28;20036;-92
2021/12/28 11:29:19;;;;;;;4.82;3.17;;;;;;;8.31;91.11;98118.84;5072782;28;20040;-92
2021/12/28 11:37:05;;;;;;;7.22;3.63;;;;;;;8.19;91.05;98099.00;5059883;28;20130;-92
2021/12/28 11:40:00;;;;;;;8.15;4.97;;;;;;;8.20;90.97;98095.38;4984877;28;20075;-92
2021/12/28 11:42:28;;;;;;;5.07;2.83;;;;;;;8.35;91.20;98098.19;5024364;28;21494;-92
2021/12/28 11:44:55;;;;;;;2.90;2.10;;;;;;;8.41;91.22;98101.03;5028076;28;20045;-92
2021/12/28 11:51:39;;;;;;;2.60;2.10;;;;;;;8.37;91.41;98077.69;4990121;28;20446;-88
2021/12/28 11:54:09;;;;;;;17.00;5.40;;;;;;;8.41;91.71;98076.41;5005946;28;20052;-92
2021/12/28 11:56:39;;;;;;;10.88;5.88;;;;;;;8.43;91.56;98080.53;4973617;28;20041;-93
2021/12/28 11:59:08;;;;;;;11.90;5.20;;;;;;;8.54;92.21;98073.25;5018832;28;20049;-92
2021/12/28 12:01:38;;;;;;;11.25;6.40;;;;;;;8.50;91.85;98086.00;5025135;28;20635;-92
2021/12/28 12:04:30;;;;;;;20.27;10.70;;;;;;;8.40;91.82;98086.16;5032470;28;20599;-94
2021/12/28 12:07:24;;;;;;;26.00;11.40;;;;;;;8.42;92.05;98078.06;5007361;28;20408;-93
2021/12/28 12:09:50;;;;;;;5.70;2.70;;;;;;;8.52;92.07;98077.88;4983681;28;20036;-91
2021/12/28 12:12:25;;;;;;;4.50;2.65;;;;;;;8.50;91.76;98071.94;5047815;28;20045;-92
2021/12/28 12:14:52;;;;;;;4.40;2.17;;;;;;;8.57;91.98;98067.63;5045744;28;20724;-92
2021/12/28 12:17:40;;;;;;;3.70;1.90;;;;;;;8.47;91.95;98076.59;5058155;28;20391;-93
2021/12/28 12:20:16;;;;;;;3.72;3.15;;;;;;;8.52;91.92;98068.13;5033555;28;20487;-94
2021/12/28 12:22:45;;;;;;;4.88;3.50;;;;;;;8.60;92.15;98059.34;5027215;28;20059;-89
2021/12/28 12:25:17;;;;;;;7.10;4.78;;;;;;;8.63;92.23;98056.41;5044807;28;20411;-92
2021/12/28 12:33:05;;;;;;;5.65;3.33;;;;;;;8.52;91.97;98067.31;5027092;28;21311;-89
2021/12/28 12:35:41;;;;;;;2.72;1.40;;;;;;;8.63;91.92;98065.16;5012991;28;20044;-90
2021/12/28 12:38:17;;;;;;;4.47;1.40;;;;;;;8.60;91.98;98057.56;5055841;28;20047;-90
2021/12/28 12:41:10;;;;;;;1.25;1.08;;;;;;;8.55;92.00;98062.53;5065287;28;20040;-90
2021/12/28 12:43:43;;;;;;;2.00;1.20;;;;;;;8.64;92.22;98058.03;5060788;28;20093;-90
2021/12/28 12:46:26;;;;;;;4.20;1.00;;;;;;;8.66;92.18;98053.41;5080923;28;20052;-89
2021/12/28 12:48:54;;;;;;;3.28;1.45;;;;;;;8.69;92.27;98047.78;5060317;28;20048;-90
2021/12/28 12:51:24;;;;;;;3.45;2.13;;;;;;;8.68;92.44;98048.78;5059804;28;20044;-89
2021/12/28 12:54:01;;;;;;;3.53;1.90;;;;;;;8.68;92.64;98046.16;5078159;28;20082;-91
2021/12/28 12:56:59;;;;;;;3.65;1.60;;;;;;;8.64;92.43;98044.81;5029731;28;20049;-89
2021/12/28 12:59:36;;;;;;;3.72;2.10;;;;;;;8.71;92.15;98037.03;4989702;28;20051;-93
2021/12/28 13:06:13;;;;;;;2.42;1.80;;;;;;;8.59;92.25;98034.72;4999411;28;20529;-92
2021/12/28 13:08:40;;;;;;;2.78;1.23;;;;;;;8.73;92.13;98035.88;5012713;28;20389;-92
2021/12/28 13:11:06;;;;;;;4.40;1.65;;;;;;;8.78;92.40;98038.03;5051357;28;20064;-92
2021/12/28 13:13:36;;;;;;;3.47;1.77;;;;;;;8.81;92.29;98032.41;5087430;28;21716;-92
2021/12/28 13:16:07;;;;;;;5.88;1.58;;;;;;;8.77;92.07;98034.53;5083044;28;20040;-92
2021/12/28 13:19:28;;;;;;;1.88;1.20;;;;;;;8.74;92.31;98026.13;5069344;28;20036;-92
2021/12/28 13:21:59;;;;;;;2.40;1.35;;;;;;;8.83;92.47;98018.00;4982921;28;20404;-87